Time;durP1;ratioP1;P1;durP2;ratioP2;P2;SDS_P1;SDS_P2;PMS_P1;PMS_P2;Temp;Humidity;BMP_temperature;BMP_pressure;BME280_temperature;BME280_humidity;BME280_pressure;Samples;Min_cycle;Max_cycle;Signal;HPM_P1;HPM_P2
2022/11/18 00:01:04;;;;;;;0.00;0.00;;;;;;;6.40;100.00;99314.25;5251287;28;20231;-69
2022/11/18 00:03:36;;;;;;;0.00;0.00;;;;;;;6.40;100.00;99322.19;5249573;28;20544;-68
2022/11/18 00:06:19;;;;;;;0.00;0.00;;;;;;;6.39;100.00;99324.00;5250316;28;20075;-68
2022/11/18 00:08:51;;;;;;;0.00;0.00;;;;;;;6.36;100.00;99321.59;5250466;28;20071;-69
2022/11/18 00:14:23;;;;;;;0.00;0.00;;;;;;;6.34;100.00;99326.19;5240133;28;20391;-68
2022/11/18 00:16:58;;;;;;;0.00;0.00;;;;;;;6.34;100.00;99325.34;5252804;28;20467;-68
2022/11/18 00:19:35;;;;;;;0.00;0.00;;;;;;;6.32;100.00;99330.78;5254068;28;20017;-68
2022/11/18 00:22:10;;;;;;;0.00;0.00;;;;;;;6.32;100.00;99324.66;5253624;28;20700;-68
2022/11/18 00:24:41;;;;;;;0.20;0.00;;;;;;;6.31;100.00;99328.25;5242343;28;20040;-68
2022/11/18 00:27:12;;;;;;;0.00;0.00;;;;;;;6.31;100.00;99326.47;5243320;28;20480;-68
2022/11/18 00:29:43;;;;;;;0.00;0.00;;;;;;;6.31;100.00;99329.09;5244447;28;20025;-69
2022/11/18 00:32:15;;;;;;;0.00;0.00;;;;;;;6.31;100.00;99330.91;5246587;28;20580;-68
2022/11/18 00:34:46;;;;;;;0.00;0.00;;;;;;;6.31;100.00;99337.06;5241350;28;20491;-68
2022/11/18 00:37:17;;;;;;;0.00;0.00;;;;;;;6.30;100.00;99332.72;5242246;28;21898;-68
2022/11/18 00:39:49;;;;;;;0.00;0.00;;;;;;;6.31;100.00;99345.00;5243149;28;20672;-69
2022/11/18 00:45:09;;;;;;;0.00;0.00;;;;;;;6.36;100.00;99347.25;5239835;28;20037;-68
2022/11/18 00:47:41;;;;;;;0.00;0.00;;;;;;;6.38;100.00;99350.63;5243918;28;20223;-69
2022/11/18 00:50:12;;;;;;;0.00;0.00;;;;;;;6.40;100.00;99357.47;5242846;28;20395;-69
2022/11/18 00:52:43;;;;;;;0.05;0.00;;;;;;;6.41;100.00;99356.50;5241330;28;20174;-69
2022/11/18 00:55:14;;;;;;;0.00;0.00;;;;;;;6.42;100.00;99358.19;5241418;28;20033;-69
2022/11/18 00:57:46;;;;;;;0.00;0.00;;;;;;;6.44;100.00;99360.69;5240555;28;20062;-68
2022/11/18 01:00:17;;;;;;;0.00;0.00;;;;;;;6.45;100.00;99365.88;5238135;28;20039;-68
2022/11/18 01:02:49;;;;;;;0.00;0.00;;;;;;;6.46;100.00;99367.56;5235644;28;20021;-69
2022/11/18 01:05:20;;;;;;;0.10;0.00;;;;;;;6.48;100.00;99373.56;5238350;28;20120;-68
2022/11/18 01:07:51;;;;;;;0.00;0.00;;;;;;;6.50;100.00;99381.41;5240106;28;20033;-68
2022/11/18 01:10:22;;;;;;;0.00;0.00;;;;;;;6.51;100.00;99383.06;5240999;28;20044;-69
2022/11/18 01:15:50;;;;;;;0.00;0.00;;;;;;;6.56;100.00;99396.78;5233599;28;20037;-68
2022/11/18 01:18:25;;;;;;;0.00;0.00;;;;;;;6.57;100.00;99397.63;5240080;28;20621;-68
2022/11/18 01:21:02;;;;;;;0.00;0.00;;;;;;;6.57;100.00;99395.81;5239751;28;20055;-69
2022/11/18 01:23:33;;;;;;;0.00;0.00;;;;;;;6.60;100.00;99392.91;5242966;28;20051;-68
2022/11/18 01:26:07;;;;;;;0.10;0.00;;;;;;;6.61;100.00;99404.34;5243039;28;20025;-68
2022/11/18 01:28:39;;;;;;;0.00;0.00;;;;;;;6.64;100.00;99406.75;5238738;28;20036;-68
2022/11/18 01:31:16;;;;;;;0.00;0.00;;;;;;;6.64;100.00;99412.88;5238113;28;20580;-69
2022/11/18 01:33:47;;;;;;;0.00;0.00;;;;;;;6.67;100.00;99406.47;5239913;28;20438;-69
2022/11/18 01:36:21;;;;;;;0.00;0.00;;;;;;;6.69;100.00;99412.47;5239656;28;20315;-69
2022/11/18 01:38:54;;;;;;;0.00;0.00;;;;;;;6.70;100.00;99419.47;5240490;28;20037;-69
2022/11/18 01:41:26;;;;;;;0.00;0.00;;;;;;;6.71;100.00;99420.31;5239710;28;20033;-68
2022/11/18 01:43:59;;;;;;;0.00;0.00;;;;;;;6.72;100.00;99424.66;5239778;28;20422;-68
2022/11/18 01:46:32;;;;;;;0.00;0.00;;;;;;;6.74;100.00;99428.84;5240035;28;20477;-68
2022/11/18 01:49:12;;;;;;;0.00;0.00;;;;;;;6.76;100.00;99434.88;5239836;28;20029;-69
2022/11/18 01:52:05;;;;;;;0.00;0.00;;;;;;;6.78;100.00;99434.75;5238347;28;20468;-69
2022/11/18 01:54:41;;;;;;;0.05;0.00;;;;;;;6.79;100.00;99437.28;5238655;28;20628;-68
2022/11/18 01:57:21;;;;;;;0.00;0.00;;;;;;;6.80;100.00;99438.09;5238229;28;20029;-69
2022/11/18 01:59:56;;;;;;;0.00;0.00;;;;;;;6.80;100.00;99432.81;5240824;28;20040;-69
2022/11/18 02:02:31;;;;;;;0.10;0.00;;;;;;;6.81;100.00;99439.81;5238363;28;20112;-69
2022/11/18 02:05:04;;;;;;;0.10;0.00;;;;;;;6.82;100.00;99444.13;5241875;28;20123;-69
2022/11/18 02:07:39;;;;;;;0.00;0.00;;;;;;;6.83;100.00;99441.34;5247473;28;20083;-69
2022/11/18 02:10:20;;;;;;;0.08;0.00;;;;;;;6.85;100.00;99446.53;5237985;28;20033;-69
2022/11/18 02:12:54;;;;;;;0.00;0.00;;;;;;;6.88;100.00;99446.25;5241079;28;20033;-69
2022/11/18 02:16:05;;;;;;;0.00;0.00;;;;;;;6.92;100.00;99445.03;5238017;28;20893;-69
2022/11/18 02:18:44;;;;;;;0.00;0.00;;;;;;;6.95;100.00;99450.09;5243930;28;20033;-69
2022/11/18 02:21:25;;;;;;;0.00;0.00;;;;;;;6.97;100.00;99444.66;5245593;28;20083;-69
2022/11/18 02:24:35;;;;;;;0.00;0.00;;;;;;;7.00;100.00;99457.63;5243453;28;20104;-69
2022/11/18 02:28:03;;;;;;;0.05;0.00;;;;;;;7.05;100.00;99463.41;5243424;28;20033;-69
2022/11/18 02:31:10;;;;;;;0.08;0.00;;;;;;;7.09;100.00;99466.66;5135935;28;20074;-69
2022/11/18 02:33:51;;;;;;;0.08;0.00;;;;;;;7.09;100.00;99470.13;5134959;28;20055;-68
2022/11/18 02:36:53;;;;;;;0.10;0.00;;;;;;;7.10;100.00;99468.34;5235102;28;20380;-69
2022/11/18 02:39:36;;;;;;;0.00;0.00;;;;;;;7.12;100.00;99472.53;5238033;28;20061;-69
2022/11/18 02:42:11;;;;;;;0.00;0.00;;;;;;;7.14;100.00;99470.59;5249339;28;20277;-69
2022/11/18 02:44:48;;;;;;;0.10;0.00;;;;;;;7.16;100.00;99479.25;5243293;28;20150;-69
2022/11/18 02:47:21;;;;;;;0.00;0.00;;;;;;;7.16;100.00;99479.25;5237712;28;20020;-69
2022/11/18 02:50:00;;;;;;;0.00;0.00;;;;;;;7.18;100.00;99481.78;5238747;28;20420;-69
2022/11/18 02:52:34;;;;;;;0.00;0.00;;;;;;;7.20;100.00;99485.97;5221761;28;20043;-69
2022/11/18 02:55:09;;;;;;;0.10;0.00;;;;;;;7.21;100.00;99489.47;5238821;28;20133;-69
2022/11/18 02:57:43;;;;;;;0.00;0.00;;;;;;;7.22;100.00;99491.16;5239711;28;20044;-69
2022/11/18 03:00:15;;;;;;;0.00;0.00;;;;;;;7.23;100.00;99493.69;5239588;28;20493;-69
2022/11/18 03:02:48;;;;;;;0.00;0.00;;;;;;;7.24;100.00;99491.88;5241212;28;20033;-69
2022/11/18 03:05:23;;;;;;;0.00;0.00;;;;;;;7.26;100.00;99488.13;5241050;28;20036;-69
2022/11/18 03:08:00;;;;;;;0.00;0.00;;;;;;;7.29;100.00;99500.31;5245026;28;20064;-69
2022/11/18 03:10:41;;;;;;;0.00;0.00;;;;;;;7.29;100.00;99500.31;5238516;28;20233;-69
2022/11/18 03:13:23;;;;;;;0.00;0.00;;;;;;;7.31;100.00;99502.81;5244914;28;20661;-69
2022/11/18 03:16:03;;;;;;;0.00;0.00;;;;;;;7.32;100.00;99502.69;5241429;28;20033;-69
2022/11/18 03:18:48;;;;;;;0.00;0.00;;;;;;;7.33;100.00;99507.03;5243092;28;20030;-69
2022/11/18 03:21:30;;;;;;;0.00;0.00;;;;;;;7.33;100.00;99509.69;5244031;28;20017;-69
2022/11/18 03:24:28;;;;;;;0.00;0.00;;;;;;;7.37;100.00;99515.56;5250326;28;20108;-69
2022/11/18 03:27:33;;;;;;;0.00;0.00;;;;;;;7.38;100.00;99512.78;5246380;28;20503;-69
2022/11/18 03:30:09;;;;;;;0.00;0.00;;;;;;;7.39;100.00;99524.25;5240458;28;20048;-69
2022/11/18 03:32:44;;;;;;;0.00;0.00;;;;;;;7.39;100.00;99522.41;5244153;28;20040;-69
2022/11/18 03:35:21;;;;;;;0.00;0.00;;;;;;;7.42;100.00;99527.47;5245066;28;20788;-69
2022/11/18 03:38:00;;;;;;;0.00;0.00;;;;;;;7.41;100.00;99528.44;5244996;28;20401;-69
2022/11/18 03:40:35;;;;;;;0.00;0.00;;;;;;;7.41;100.00;99531.09;5251409;28;20111;-69
2022/11/18 03:43:14;;;;;;;0.00;0.00;;;;;;;7.42;100.00;99538.09;5248958;28;20258;-69
2022/11/18 03:45:53;;;;;;;0.00;0.00;;;;;;;7.44;100.00;99536.16;5239975;28;20048;-69
2022/11/18 03:48:29;;;;;;;0.00;0.00;;;;;;;7.44;100.00;99540.59;5256831;28;20115;-69
2022/11/18 03:51:06;;;;;;;0.00;0.00;;;;;;;7.45;100.00;99539.63;5245394;28;20124;-69
2022/11/18 03:53:46;;;;;;;0.13;0.00;;;;;;;7.47;100.00;99553.63;5253924;28;20483;-69
2022/11/18 03:56:23;;;;;;;0.00;0.00;;;;;;;7.46;100.00;99550.13;5250096;28;20056;-69
2022/11/18 03:59:07;;;;;;;0.00;0.00;;;;;;;7.47;100.00;99558.91;5247803;28;20670;-69
2022/11/18 04:01:47;;;;;;;0.00;0.00;;;;;;;7.46;100.00;99552.78;5249500;28;20040;-69
2022/11/18 04:04:19;;;;;;;0.00;0.00;;;;;;;7.47;100.00;99561.56;5253119;28;20434;-69
2022/11/18 04:06:57;;;;;;;0.00;0.00;;;;;;;7.46;100.00;99575.84;5246954;28;20483;-69
2022/11/18 04:09:41;;;;;;;0.00;0.00;;;;;;;7.46;100.00;99575.84;5249656;28;20052;-69
2022/11/18 04:12:16;;;;;;;0.00;0.00;;;;;;;7.46;100.00;99589.94;5250185;28;20067;-69
2022/11/18 04:14:51;;;;;;;0.00;0.00;;;;;;;7.45;100.00;99584.75;5247334;28;20403;-69
2022/11/18 04:17:27;;;;;;;0.00;0.00;;;;;;;7.44;100.00;99589.22;5249172;28;20698;-69
2022/11/18 04:19:58;;;;;;;0.00;0.00;;;;;;;7.42;100.00;99583.19;5250742;28;20056;-69
2022/11/18 04:22:29;;;;;;;0.00;0.00;;;;;;;7.39;100.00;99590.56;5250397;28;20116;-69
2022/11/18 04:25:00;;;;;;;0.00;0.00;;;;;;;7.35;100.00;99586.50;5246932;28;20570;-69
2022/11/18 04:27:32;;;;;;;0.00;0.00;;;;;;;7.31;100.00;99588.56;5250513;28;20467;-69
2022/11/18 04:30:05;;;;;;;0.00;0.00;;;;;;;7.29;100.00;99594.94;5247525;28;20487;-69
2022/11/18 04:32:36;;;;;;;0.00;0.00;;;;;;;7.25;100.00;99591.72;5245721;28;20043;-69
2022/11/18 04:35:08;;;;;;;0.00;0.00;;;;;;;7.22;100.00;99595.47;5249154;28;20029;-69
2022/11/18 04:37:39;;;;;;;0.00;0.00;;;;;;;7.18;100.00;99599.34;5243320;28;20452;-69
2022/11/18 04:40:11;;;;;;;0.00;0.00;;;;;;;7.15;100.00;99599.59;5246939;28;20111;-69
2022/11/18 04:42:43;;;;;;;0.28;0.08;;;;;;;7.11;100.00;99607.94;5230567;28;20570;-69
2022/11/18 04:45:14;;;;;;;0.00;0.00;;;;;;;7.05;100.00;99611.91;5246407;28;20029;-69
2022/11/18 04:47:45;;;;;;;0.00;0.00;;;;;;;7.01;100.00;99613.16;5245478;28;20029;-69
2022/11/18 04:50:16;;;;;;;0.00;0.00;;;;;;;6.97;100.00;99623.16;5238660;28;20143;-69
2022/11/18 04:52:48;;;;;;;0.00;0.00;;;;;;;6.95;100.00;99626.91;5239194;28;20423;-69
2022/11/18 04:55:19;;;;;;;0.00;0.00;;;;;;;6.92;100.00;99620.03;5241244;28;20060;-69
2022/11/18 04:57:50;;;;;;;0.00;0.00;;;;;;;6.89;100.00;99627.41;5241864;28;20060;-69
2022/11/18 05:00:21;;;;;;;0.00;0.00;;;;;;;6.86;100.00;99629.34;5236472;28;20033;-69
2022/11/18 05:02:53;;;;;;;0.00;0.00;;;;;;;6.82;100.00;99630.53;5237990;28;20025;-69
2022/11/18 05:05:24;;;;;;;0.00;0.00;;;;;;;6.78;100.00;99631.75;5245660;28;20033;-69
2022/11/18 05:07:55;;;;;;;0.00;0.00;;;;;;;6.74;100.00;99632.97;5241826;28;20032;-69
2022/11/18 05:10:26;;;;;;;0.00;0.00;;;;;;;6.73;100.00;99636.59;5236907;28;20142;-69
2022/11/18 05:12:58;;;;;;;0.00;0.00;;;;;;;6.70;100.00;99631.53;5242679;28;20032;-69
2022/11/18 05:15:29;;;;;;;0.00;0.00;;;;;;;6.66;100.00;99640.69;5241803;28;20111;-69
2022/11/18 05:18:00;;;;;;;0.00;0.00;;;;;;;6.65;100.00;99649.59;5245345;28;20036;-69
2022/11/18 05:20:31;;;;;;;0.00;0.00;;;;;;;6.61;100.00;99646.34;5242986;28;20364;-69
2022/11/18 05:23:03;;;;;;;0.00;0.00;;;;;;;6.59;100.00;99642.97;5244192;28;20064;-69
2022/11/18 05:25:34;;;;;;;0.05;0.00;;;;;;;6.56;100.00;99650.31;5236596;28;20087;-69
2022/11/18 05:28:05;;;;;;;0.22;0.00;;;;;;;6.53;100.00;99651.41;5238066;28;20025;-69
2022/11/18 05:30:37;;;;;;;0.00;0.00;;;;;;;6.52;100.00;99649.75;5241151;28;20024;-69
2022/11/18 05:33:08;;;;;;;0.00;0.00;;;;;;;6.50;100.00;99653.44;5242859;28;20033;-69
2022/11/18 05:35:39;;;;;;;0.00;0.00;;;;;;;6.47;100.00;99658.03;5236665;28;20033;-69
2022/11/18 05:38:10;;;;;;;0.00;0.00;;;;;;;6.46;100.00;99664.31;5239684;28;20061;-69
2022/11/18 05:40:42;;;;;;;0.00;0.00;;;;;;;6.43;100.00;99667.19;5245866;28;20070;-69
2022/11/18 05:43:13;;;;;;;0.00;0.00;;;;;;;6.42;100.00;99668.19;5241984;28;20064;-69
2022/11/18 05:45:45;;;;;;;0.00;0.00;;;;;;;6.39;100.00;99667.56;5237886;28;20058;-69
2022/11/18 05:48:17;;;;;;;0.00;0.00;;;;;;;6.37;100.00;99680.94;5240638;28;20425;-69
2022/11/18 05:50:50;;;;;;;0.10;0.00;;;;;;;6.36;100.00;99684.53;5237531;28;20143;-69
2022/11/18 05:53:23;;;;;;;0.20;0.00;;;;;;;6.36;100.00;99683.69;5238602;28;20692;-69
2022/11/18 05:56:20;;;;;;;0.00;0.00;;;;;;;6.35;100.00;99688.16;5237950;28;20037;-69
2022/11/18 05:58:51;;;;;;;0.00;0.00;;;;;;;6.32;100.00;99688.38;5235385;28;20118;-69
2022/11/18 06:01:29;;;;;;;0.00;0.00;;;;;;;6.30;100.00;99702.72;5246347;28;20029;-69
2022/11/18 06:04:07;;;;;;;0.00;0.00;;;;;;;6.27;100.00;99698.47;5239534;28;20051;-69
2022/11/18 06:06:38;;;;;;;0.00;0.00;;;;;;;6.25;100.00;99689.81;5241511;28;20031;-69
2022/11/18 06:09:13;;;;;;;0.10;0.00;;;;;;;6.23;100.00;99702.31;5244315;28;20041;-69
2022/11/18 06:11:51;;;;;;;0.00;0.00;;;;;;;6.22;100.00;99700.66;5241305;28;20079;-69
2022/11/18 06:14:34;;;;;;;0.00;0.00;;;;;;;6.20;100.00;99703.41;5237254;28;20086;-69
2022/11/18 06:17:21;;;;;;;0.00;0.00;;;;;;;6.17;100.00;99716.88;5242346;28;20032;-69
2022/11/18 06:19:52;;;;;;;0.00;0.00;;;;;;;6.16;100.00;99711.72;5241126;28;20037;-69
2022/11/18 06:22:25;;;;;;;0.00;0.00;;;;;;;6.13;100.00;99718.06;5245252;28;20037;-69
2022/11/18 06:24:56;;;;;;;0.10;0.00;;;;;;;6.13;100.00;99719.88;5221329;28;20057;-64
2022/11/18 06:27:29;;;;;;;0.00;0.00;;;;;;;6.11;100.00;99735.06;5239984;28;20029;-68
2022/11/18 06:30:00;;;;;;;0.00;0.00;;;;;;;6.09;100.00;99727.22;5234010;28;20040;-68
2022/11/18 06:32:31;;;;;;;0.00;0.00;;;;;;;6.08;100.00;99731.69;5233958;28;20036;-69
2022/11/18 06:35:03;;;;;;;0.00;0.00;;;;;;;6.06;100.00;99736.25;5238663;28;20028;-68
2022/11/18 06:37:34;;;;;;;0.00;0.00;;;;;;;6.06;100.00;99744.19;5237723;28;20060;-68
2022/11/18 06:40:06;;;;;;;0.00;0.00;;;;;;;6.06;100.00;99754.78;5245719;28;20751;-68
2022/11/18 06:45:28;;;;;;;0.00;0.00;;;;;;;6.02;100.00;99758.63;5242821;28;20040;-68
2022/11/18 06:48:00;;;;;;;0.00;0.00;;;;;;;6.01;100.00;99764.88;5244736;28;20112;-68
2022/11/18 06:50:31;;;;;;;0.10;0.00;;;;;;;6.01;100.00;99756.09;5246298;28;20037;-71
2022/11/18 06:53:03;;;;;;;0.00;0.00;;;;;;;6.01;100.00;99767.50;5248232;28;20116;-69
2022/11/18 06:55:34;;;;;;;0.08;0.00;;;;;;;6.01;100.00;99764.88;5243650;28;21714;-68
2022/11/18 06:58:05;;;;;;;0.10;0.00;;;;;;;6.04;100.00;99777.03;5252150;28;20047;-67
2022/11/18 07:00:36;;;;;;;0.10;0.00;;;;;;;6.02;100.00;99771.88;5245114;28;20075;-68
2022/11/18 07:03:08;;;;;;;0.00;0.00;;;;;;;6.05;100.00;99770.78;5243680;28;20103;-68
2022/11/18 07:05:39;;;;;;;0.00;0.00;;;;;;;6.03;100.00;99778.84;5243161;28;20040;-68
2022/11/18 07:08:10;;;;;;;0.00;0.00;;;;;;;6.01;100.00;99787.88;5245323;28;20151;-68
2022/11/18 07:10:50;;;;;;;0.05;0.00;;;;;;;6.01;100.00;99795.81;5246004;28;20037;-68
2022/11/18 07:13:22;;;;;;;0.00;0.00;;;;;;;5.97;100.00;99781.94;5237006;28;20028;-69
2022/11/18 07:15:53;;;;;;;0.00;0.00;;;;;;;5.95;100.00;99793.59;5243882;28;20029;-68
2022/11/18 07:18:24;;;;;;;0.20;0.00;;;;;;;5.94;100.00;99797.19;5244684;28;20048;-68
2022/11/18 07:20:55;;;;;;;0.00;0.00;;;;;;;5.90;100.00;99805.34;5252591;28;20132;-68
2022/11/18 07:23:28;;;;;;;0.00;0.00;;;;;;;5.89;100.00;99813.41;5244921;28;20033;-69
2022/11/18 07:26:00;;;;;;;0.00;0.00;;;;;;;5.85;100.00;99818.09;5247884;28;20033;-68
2022/11/18 07:28:32;;;;;;;0.00;0.00;;;;;;;5.85;100.00;99815.44;5248352;28;20035;-68
2022/11/18 07:31:18;;;;;;;0.00;0.00;;;;;;;5.85;100.00;99818.09;5242989;28;20543;-68
2022/11/18 07:33:53;;;;;;;0.00;0.00;;;;;;;5.84;100.00;99820.84;5246246;28;20037;-69
2022/11/18 07:36:27;;;;;;;0.00;0.00;;;;;;;5.83;100.00;99827.94;5243716;28;20605;-68
2022/11/18 07:38:58;;;;;;;0.00;0.00;;;;;;;5.83;100.00;99833.25;5250951;28;20143;-68
2022/11/18 07:41:30;;;;;;;0.00;0.00;;;;;;;5.83;100.00;99829.72;5251361;28;20368;-68
2022/11/18 07:44:03;;;;;;;0.00;0.00;;;;;;;5.82;100.00;99841.28;5250731;28;20033;-68
2022/11/18 07:46:36;;;;;;;0.00;0.00;;;;;;;5.80;100.00;99833.44;5246071;28;20691;-68
2022/11/18 07:49:09;;;;;;;0.00;0.00;;;;;;;5.79;100.00;99836.19;5248655;28;20086;-68
2022/11/18 07:51:40;;;;;;;0.00;0.00;;;;;;;5.78;100.00;99835.38;5249221;28;20060;-68
2022/11/18 07:54:15;;;;;;;0.22;0.00;;;;;;;5.79;100.00;99846.78;5256938;28;20091;-68
2022/11/18 07:56:47;;;;;;;0.00;0.00;;;;;;;5.78;100.00;99845.13;5252319;28;20474;-68
2022/11/18 07:59:18;;;;;;;0.00;0.00;;;;;;;5.78;100.00;99858.34;5248237;28;20052;-68
2022/11/18 08:01:49;;;;;;;0.13;0.00;;;;;;;5.77;100.00;99852.22;5253174;28;20036;-68
2022/11/18 08:04:20;;;;;;;0.10;0.00;;;;;;;5.80;100.00;99859.09;5255915;28;20029;-68
2022/11/18 08:06:52;;;;;;;0.00;0.00;;;;;;;5.80;100.00;99862.56;5252171;28;20024;-68
2022/11/18 08:09:23;;;;;;;0.10;0.00;;;;;;;5.82;100.00;99859.81;5244820;28;20085;-68
2022/11/18 08:11:54;;;;;;;0.10;0.00;;;;;;;5.83;100.00;99866.78;5252753;28;20061;-68
2022/11/18 08:14:27;;;;;;;0.00;0.00;;;;;;;5.82;100.00;99878.34;5251648;28;20032;-69
2022/11/18 08:16:59;;;;;;;0.00;0.00;;;;;;;5.84;100.00;99876.44;5247824;28;20040;-70
2022/11/18 08:19:33;;;;;;;0.15;0.03;;;;;;;5.84;100.00;99887.84;5251060;28;20029;-69
2022/11/18 08:22:04;;;;;;;;;;;;;;;5.85;100.00;99891.38;5256115;28;20112;-69
2022/11/18 08:24:36;;;;;;;0.00;0.00;;;;;;;5.85;100.00;99883.44;5251205;28;19916;-69
2022/11/18 08:27:07;;;;;;;0.00;0.00;;;;;;;5.85;100.00;99889.56;5255126;28;20033;-69
2022/11/18 08:29:38;;;;;;;0.00;0.00;;;;;;;5.86;100.00;99895.69;5250278;28;20444;-69
2022/11/18 08:32:09;;;;;;;0.00;0.00;;;;;;;5.88;100.00;99893.78;5247815;28;20436;-69
2022/11/18 08:34:41;;;;;;;0.00;0.00;;;;;;;5.89;100.00;99893.66;5246848;28;20044;-69
2022/11/18 08:37:12;;;;;;;0.08;0.00;;;;;;;5.90;100.00;99890.06;5256571;28;20037;-69
2022/11/18 08:39:43;;;;;;;0.00;0.00;;;;;;;5.92;100.00;99897.88;5252331;28;20037;-69
2022/11/18 08:42:15;;;;;;;0.15;0.00;;;;;;;5.94;100.00;99893.31;5249937;28;20033;-69
2022/11/18 08:44:46;;;;;;;0.00;0.00;;;;;;;5.95;100.00;99897.72;5244229;28;20056;-69
2022/11/18 08:47:17;;;;;;;0.00;0.00;;;;;;;5.97;100.00;99897.59;5245524;28;20150;-69
2022/11/18 08:49:48;;;;;;;0.08;0.00;;;;;;;5.98;100.00;99892.16;5246024;28;20108;-69
2022/11/18 08:52:20;;;;;;;0.00;0.00;;;;;;;6.00;100.00;99898.22;5252425;28;20041;-69
2022/11/18 08:54:51;;;;;;;0.00;0.00;;;;;;;6.05;100.00;99905.81;5256675;28;20061;-69
2022/11/18 08:57:23;;;;;;;0.10;0.00;;;;;;;6.09;100.00;99912.59;5255157;28;20061;-68
2022/11/18 08:59:54;;;;;;;0.28;0.03;;;;;;;6.12;100.00;99900.91;5248295;28;20128;-69
2022/11/18 09:02:25;;;;;;;0.00;0.00;;;;;;;6.18;100.00;99905.78;5255325;28;20032;-69
2022/11/18 09:04:56;;;;;;;0.00;0.00;;;;;;;6.24;100.00;99915.94;5247994;28;20025;-68
2022/11/18 09:07:28;;;;;;;0.00;0.00;;;;;;;6.28;100.00;99912.94;5253276;28;20060;-70
2022/11/18 09:09:59;;;;;;;0.00;0.00;;;;;;;6.34;100.00;99916.94;5249443;28;20087;-70
2022/11/18 09:12:30;;;;;;;0.10;0.00;;;;;;;6.40;100.00;99916.47;5244572;28;20035;-68
2022/11/18 09:15:02;;;;;;;0.00;0.00;;;;;;;6.45;100.00;99919.63;5246030;28;20037;-69
2022/11/18 09:17:34;;;;;;;0.00;0.00;;;;;;;6.52;100.00;99925.34;5248455;28;20059;-69
2022/11/18 09:20:06;;;;;;;0.10;0.00;;;;;;;6.57;100.00;99930.28;5246676;28;20491;-69
2022/11/18 09:22:38;;;;;;;0.00;0.00;;;;;;;6.61;100.00;99923.78;5244063;28;20056;-69
2022/11/18 09:25:09;;;;;;;0.00;0.00;;;;;;;6.64;100.00;99931.53;5246840;28;20036;-68
2022/11/18 09:27:41;;;;;;;0.00;0.00;;;;;;;6.67;100.00;99936.56;5252077;28;20025;-70
2022/11/18 09:30:18;;;;;;;0.00;0.00;;;;;;;6.71;100.00;99948.63;5245414;28;20036;-66
2022/11/18 09:32:49;;;;;;;0.00;0.00;;;;;;;6.75;100.00;99946.59;5247384;28;20063;-66
2022/11/18 09:35:20;;;;;;;0.00;0.00;;;;;;;6.76;100.00;99946.50;5245701;28;20036;-65
2022/11/18 09:37:52;;;;;;;0.00;0.00;;;;;;;6.78;100.00;99949.88;5242137;28;20120;-65
2022/11/18 09:40:26;;;;;;;0.10;0.00;;;;;;;6.83;100.00;99961.00;5251011;28;20497;-65
2022/11/18 09:43:10;;;;;;;0.10;0.00;;;;;;;6.87;100.00;99967.75;5247317;28;20724;-66
2022/11/18 09:45:47;;;;;;;0.00;0.00;;;;;;;6.92;100.00;99969.19;5247476;28;20032;-65
2022/11/18 09:49:11;;;;;;;0.00;0.00;;;;;;;6.94;100.00;99972.59;5245138;28;20029;-66
2022/11/18 09:51:12;;;;;;;0.00;0.00;;;;;;;6.99;100.00;99978.41;5246627;28;20079;-67
2022/11/18 09:53:43;;;;;;;0.00;0.00;;;;;;;7.01;100.00;99981.78;5246737;28;20153;-65
2022/11/18 09:56:16;;;;;;;0.08;0.00;;;;;;;7.05;100.00;99985.88;5245863;28;20060;-65
2022/11/18 09:58:47;;;;;;;0.00;0.00;;;;;;;7.10;100.00;99988.19;5246678;28;20048;-66
2022/11/18 10:01:19;;;;;;;0.00;0.00;;;;;;;7.18;100.00;99997.25;5247872;28;20029;-65
2022/11/18 10:03:51;;;;;;;0.00;0.00;;;;;;;7.25;100.00;100003.78;5249247;28;20124;-66
2022/11/18 10:06:28;;;;;;;1.20;0.00;;;;;;;7.34;100.00;100006.69;5244695;28;20021;-65
2022/11/18 10:09:08;;;;;;;0.00;0.00;;;;;;;7.43;100.00;100009.50;5252735;28;20094;-66
2022/11/18 10:11:48;;;;;;;0.00;0.00;;;;;;;7.50;100.00;100006.34;5247521;28;20032;-66
2022/11/18 10:14:47;;;;;;;0.00;0.00;;;;;;;7.59;100.00;100000.34;5243945;28;20077;-65
2022/11/18 10:17:38;;;;;;;0.00;0.00;;;;;;;7.66;100.00;100006.88;5246551;28;20036;-65
2022/11/18 10:20:28;;;;;;;0.00;0.00;;;;;;;7.74;100.00;100009.75;5252623;28;20041;-64
2022/11/18 10:23:32;;;;;;;0.00;0.00;;;;;;;7.83;100.00;100002.91;5248078;28;20041;-64
2022/11/18 10:26:03;;;;;;;0.00;0.00;;;;;;;7.90;100.00;100003.25;5240195;28;20060;-64
2022/11/18 10:28:35;;;;;;;0.00;0.00;;;;;;;7.96;100.00;100003.63;5250336;28;20028;-63
2022/11/18 10:31:10;;;;;;;0.00;0.00;;;;;;;8.04;100.00;100018.97;5250569;28;20055;-63
2022/11/18 10:33:42;;;;;;;0.00;0.00;;;;;;;8.09;100.00;100021.22;5247200;28;20491;-63
2022/11/18 10:36:16;;;;;;;0.00;0.00;;;;;;;8.11;100.00;100022.81;5247739;28;20041;-63
2022/11/18 10:38:47;;;;;;;0.22;0.00;;;;;;;8.14;100.00;100019.06;5250416;28;20033;-63
2022/11/18 10:41:20;;;;;;;0.00;0.00;;;;;;;8.18;100.00;100023.16;5252721;28;20095;-63
2022/11/18 10:43:54;;;;;;;0.00;0.00;;;;;;;8.20;100.00;100021.22;5244722;28;20490;-64
2022/11/18 10:46:29;;;;;;;0.10;0.00;;;;;;;8.24;100.00;100022.66;5243396;28;20024;-63
2022/11/18 10:49:09;;;;;;;0.00;0.00;;;;;;;8.29;100.00;100031.13;5252673;28;20052;-65
2022/11/18 10:51:45;;;;;;;0.00;0.00;;;;;;;8.32;100.00;100025.56;5251207;28;20043;-63
2022/11/18 10:54:21;;;;;;;0.03;0.00;;;;;;;8.34;100.00;100028.97;5244003;28;20029;-63
2022/11/18 10:56:59;;;;;;;0.00;0.00;;;;;;;8.37;100.00;100031.34;5240945;28;20044;-62
2022/11/18 10:59:37;;;;;;;0.00;0.00;;;;;;;8.41;100.00;100026.63;5249066;28;20048;-62
2022/11/18 11:02:18;;;;;;;0.00;0.00;;;;;;;8.43;100.00;100038.03;5242406;28;20531;-64
2022/11/18 11:04:51;;;;;;;0.00;0.00;;;;;;;8.47;100.00;100035.97;5248738;28;20693;-63
2022/11/18 11:07:31;;;;;;;0.00;0.00;;;;;;;8.51;100.00;100043.56;5248332;28;20032;-63
2022/11/18 11:10:05;;;;;;;0.00;0.00;;;;;;;8.56;100.00;100046.69;5253411;28;20509;-63
2022/11/18 11:12:50;;;;;;;0.00;0.00;;;;;;;8.60;100.00;100052.63;5249382;28;20032;-63
2022/11/18 11:15:34;;;;;;;;;;;;;;;8.61;100.00;100044.53;5245944;28;20216;-63
2022/11/18 11:18:53;;;;;;;0.00;0.00;;;;;;;8.66;100.00;100048.63;5252474;28;19928;-63
2022/11/18 11:21:17;;;;;;;0.00;0.00;;;;;;;8.70;100.00;100055.38;5235232;28;20037;-63
2022/11/18 11:23:48;;;;;;;0.00;0.00;;;;;;;8.73;100.00;100055.13;5242100;28;20100;-63
2022/11/18 11:26:37;;;;;;;0.00;0.00;;;;;;;8.74;100.00;100054.97;5244136;28;20031;-63
2022/11/18 11:29:29;;;;;;;0.00;0.00;;;;;;;8.78;100.00;100052.91;5242673;28;20178;-63
2022/11/18 11:32:18;;;;;;;0.00;0.00;;;;;;;8.83;100.00;100056.06;5244283;28;20037;-63
2022/11/18 11:35:16;;;;;;;0.00;0.00;;;;;;;8.84;100.00;100052.44;5251294;28;20471;-64
2022/11/18 11:37:50;;;;;;;0.10;0.00;;;;;;;8.89;100.00;100060.03;5247589;28;20066;-64
2022/11/18 11:40:32;;;;;;;0.00;0.00;;;;;;;8.92;100.00;100055.31;5244710;28;20033;-64
2022/11/18 11:43:12;;;;;;;0.00;0.00;;;;;;;8.94;100.00;100058.69;5241121;28;20086;-65
2022/11/18 11:45:53;;;;;;;0.00;0.00;;;;;;;8.93;100.00;100053.47;5245617;28;20045;-63
2022/11/18 11:48:33;;;;;;;0.00;0.00;;;;;;;8.93;100.00;100066.78;5245835;28;20032;-63
2022/11/18 11:51:19;;;;;;;0.00;0.00;;;;;;;8.93;100.00;100067.63;5243625;28;20072;-63
2022/11/18 11:54:22;;;;;;;0.00;0.00;;;;;;;8.93;100.00;100062.31;5242742;28;20036;-64
2022/11/18 11:57:14;;;;;;;0.00;0.00;;;;;;;8.95;100.00;100067.50;5244254;28;20029;-63
2022/11/18 12:00:01;;;;;;;0.00;0.00;;;;;;;8.97;100.00;100069.06;5244632;28;20476;-63
2022/11/18 12:02:53;;;;;;;0.40;0.00;;;;;;;9.00;100.00;100073.31;5251089;28;20033;-64
2022/11/18 12:05:35;;;;;;;0.10;0.00;;;;;;;9.03;100.00;100070.38;5252395;28;20029;-63
2022/11/18 12:08:14;;;;;;;0.00;0.00;;;;;;;9.05;100.00;100076.44;5246986;28;20517;-64
2022/11/18 12:10:52;;;;;;;0.00;0.00;;;;;;;9.09;100.00;100077.88;5246986;28;20029;-64
2022/11/18 12:13:51;;;;;;;0.00;0.00;;;;;;;9.15;100.00;100072.03;5244094;28;20111;-64
2022/11/18 12:16:41;;;;;;;0.00;0.00;;;;;;;9.21;100.00;100070.69;5252805;28;20032;-64
2022/11/18 12:19:16;;;;;;;0.00;0.00;;;;;;;9.27;100.00;100066.66;5249937;28;20037;-64
2022/11/18 12:21:47;;;;;;;0.00;0.00;;;;;;;9.33;100.00;100063.47;5247142;28;20525;-64
2022/11/18 12:24:23;;;;;;;0.10;0.00;;;;;;;9.36;100.00;100066.72;5249003;28;20032;-64